createdAt,value
2022-10-02T00:00:14.293Z,9.28
2022-10-02T00:02:46.223Z,9.27
2022-10-02T00:05:14.129Z,9.22
2022-10-02T00:07:44.425Z,9.22
2022-10-02T00:10:17.543Z,9.09
2022-10-02T00:12:47.334Z,9.03
2022-10-02T00:15:16.555Z,8.91
2022-10-02T00:17:46.967Z,8.74
2022-10-02T00:20:15.879Z,8.62
2022-10-02T00:22:51.710Z,8.46
2022-10-02T00:25:26.536Z,8.52
2022-10-02T00:28:10.327Z,8.47
2022-10-02T00:30:47.187Z,8.37
2022-10-02T00:33:23.806Z,8.26
2022-10-02T00:36:03.287Z,8.29
2022-10-02T00:38:45.094Z,8.27
2022-10-02T00:41:27.399Z,8.32
2022-10-02T00:44:12.448Z,8.41
2022-10-02T00:46:49.952Z,8.46
2022-10-02T00:49:44.948Z,8.50
2022-10-02T00:52:36.754Z,8.60
2022-10-02T00:55:30.423Z,8.69
2022-10-02T00:58:08.664Z,8.70
2022-10-02T01:00:36.820Z,8.76
2022-10-02T01:03:15.424Z,8.81
2022-10-02T01:05:42.224Z,8.91
2022-10-02T01:08:08.788Z,8.89
2022-10-02T01:10:37.674Z,8.90
2022-10-02T01:13:04.590Z,8.93
2022-10-02T01:15:34.908Z,8.95
2022-10-02T01:18:03.375Z,8.96
2022-10-02T01:20:36.061Z,9.07
2022-10-02T01:23:10.595Z,9.12
2022-10-02T01:25:38.591Z,9.11
2022-10-02T01:28:05.547Z,9.15
2022-10-02T01:30:34.465Z,9.15
2022-10-02T01:33:03.427Z,9.14
2022-10-02T01:35:31.793Z,9.18
2022-10-02T01:37:59.999Z,9.27
2022-10-02T01:40:29.287Z,9.27
2022-10-02T01:43:00.484Z,9.23
2022-10-02T01:45:37.467Z,9.30
2022-10-02T01:48:11.918Z,9.35
2022-10-02T01:50:48.115Z,9.37
2022-10-02T01:53:23.395Z,9.40
2022-10-02T01:55:58.770Z,9.42
2022-10-02T01:58:35.629Z,9.49
2022-10-02T02:01:17.162Z,9.57
2022-10-02T02:03:53.104Z,9.56
2022-10-02T02:06:29.111Z,9.58
2022-10-02T02:09:05.559Z,9.64
2022-10-02T02:11:35.189Z,9.67
2022-10-02T02:14:07.351Z,9.65
2022-10-02T02:16:41.015Z,9.68
2022-10-02T02:19:14.079Z,9.69
2022-10-02T02:21:45.507Z,9.69
2022-10-02T02:24:17.875Z,9.74
2022-10-02T02:26:45.510Z,9.77
2022-10-02T02:29:16.823Z,9.79
2022-10-02T02:31:49.067Z,9.80
2022-10-02T02:34:19.878Z,9.80
2022-10-02T02:36:50.628Z,9.83
2022-10-02T02:39:19.763Z,9.91
2022-10-02T02:41:49.583Z,9.93
2022-10-02T02:44:23.133Z,9.95
2022-10-02T02:46:54.708Z,9.97
2022-10-02T02:49:22.289Z,10.00
2022-10-02T02:51:50.278Z,10.05
2022-10-02T02:54:21.747Z,10.11
2022-10-02T02:56:50.033Z,10.11
2022-10-02T02:59:21.211Z,10.17
2022-10-02T03:01:47.858Z,10.21
2022-10-02T03:04:15.087Z,10.25
2022-10-02T03:06:44.411Z,10.24
2022-10-02T03:09:15.734Z,10.30
2022-10-02T03:11:52.312Z,10.32
2022-10-02T03:14:48.123Z,10.37
2022-10-02T03:17:24.991Z,10.36
2022-10-02T03:19:58.895Z,10.39
2022-10-02T03:22:29.093Z,10.40
2022-10-02T03:25:03.098Z,10.40
2022-10-02T03:27:37.031Z,10.42
2022-10-02T03:30:07.333Z,10.43
2022-10-02T03:32:35.999Z,10.46
2022-10-02T03:35:04.993Z,10.50
2022-10-02T03:37:32.010Z,10.52
2022-10-02T03:39:58.980Z,10.54
2022-10-02T03:42:27.699Z,10.54
2022-10-02T03:44:54.273Z,10.53
2022-10-02T03:47:22.247Z,10.52
2022-10-02T03:49:48.795Z,10.58
2022-10-02T03:52:17.368Z,10.53
2022-10-02T03:54:44.596Z,10.55
2022-10-02T03:57:18.086Z,10.61
2022-10-02T03:59:50.836Z,10.63
2022-10-02T04:02:28.918Z,10.63
2022-10-02T04:05:02.738Z,10.66
2022-10-02T04:07:34.331Z,10.67
2022-10-02T04:10:16.363Z,10.60
2022-10-02T04:12:45.292Z,10.63
2022-10-02T04:15:19.628Z,10.64
2022-10-02T04:17:53.799Z,10.65
2022-10-02T04:20:28.798Z,10.67
2022-10-02T04:23:01.737Z,10.71
2022-10-02T04:25:33.371Z,10.70
2022-10-02T04:28:05.286Z,10.72
2022-10-02T04:30:31.948Z,10.73
2022-10-02T04:33:10.811Z,10.78
2022-10-02T04:35:48.148Z,10.78
2022-10-02T04:38:40.539Z,10.80
2022-10-02T04:41:22.517Z,10.80
2022-10-02T04:44:03.070Z,10.83
2022-10-02T04:46:57.106Z,10.79
2022-10-02T04:49:43.825Z,10.78
2022-10-02T04:52:27.185Z,10.83
2022-10-02T04:55:09.041Z,10.81
2022-10-02T04:57:59.206Z,10.80
2022-10-02T05:00:32.165Z,10.85
2022-10-02T05:03:17.511Z,10.85
2022-10-02T05:06:14.735Z,10.82
2022-10-02T05:08:59.805Z,10.82
2022-10-02T05:11:43.336Z,10.85
2022-10-02T05:14:31.641Z,10.81
2022-10-02T05:17:12.774Z,10.84
2022-10-02T05:19:55.206Z,10.87
2022-10-02T05:22:39.590Z,10.83
2022-10-02T05:25:30.638Z,10.87
2022-10-02T05:28:17.491Z,10.89
2022-10-02T05:30:48.535Z,10.83
2022-10-02T05:33:44.761Z,10.87
2022-10-02T05:36:29.745Z,10.92
2022-10-02T05:39:04.245Z,10.93
2022-10-02T05:41:39.610Z,11.02
2022-10-02T05:44:11.842Z,11.03
2022-10-02T05:46:44.527Z,11.04
2022-10-02T05:49:17.489Z,11.01
2022-10-02T05:51:49.226Z,11.04
2022-10-02T05:54:27.536Z,11.03
2022-10-02T05:56:58.367Z,11.08
2022-10-02T05:59:32.357Z,11.10
2022-10-02T06:02:04.734Z,11.12
2022-10-02T06:04:37.258Z,11.18
2022-10-02T06:07:09.575Z,11.01
2022-10-02T06:09:47.161Z,11.06
2022-10-02T06:12:20.567Z,11.00
2022-10-02T06:14:53.967Z,11.01
2022-10-02T06:17:25.590Z,11.09
2022-10-02T06:20:03.030Z,11.16
2022-10-02T06:22:35.679Z,11.24
2022-10-02T06:25:06.504Z,11.21
2022-10-02T06:27:40.671Z,11.27
2022-10-02T06:30:10.985Z,11.24
2022-10-02T06:32:42.067Z,11.28
2022-10-02T06:35:12.226Z,11.35
2022-10-02T06:37:50.148Z,11.45
2022-10-02T06:40:37.482Z,11.42
2022-10-02T06:43:11.856Z,11.52
2022-10-02T06:45:49.014Z,11.56
2022-10-02T06:48:25.394Z,11.61
2022-10-02T06:50:59.323Z,11.54
2022-10-02T06:53:54.880Z,11.42
2022-10-02T06:56:41.902Z,11.42
2022-10-02T06:59:24.342Z,11.47
2022-10-02T07:02:00.692Z,11.47
2022-10-02T07:04:52.718Z,11.43
2022-10-02T07:07:37.389Z,11.55
2022-10-02T07:10:17.847Z,11.42
2022-10-02T07:13:09.261Z,11.56
2022-10-02T07:15:56.603Z,11.62
2022-10-02T07:18:35.458Z,11.64
2022-10-02T07:21:10.555Z,11.68
2022-10-02T07:23:50.154Z,11.78
2022-10-02T07:26:44.627Z,11.68
2022-10-02T07:29:28.181Z,11.74
2022-10-02T07:32:19.258Z,11.75
2022-10-02T07:34:55.849Z,11.83
2022-10-02T07:37:32.088Z,11.85
2022-10-02T07:40:16.992Z,11.84
2022-10-02T07:42:55.463Z,11.86
2022-10-02T07:45:28.858Z,11.94
2022-10-02T07:48:17.695Z,11.92
2022-10-02T07:50:59.718Z,11.94
2022-10-02T07:53:29.068Z,11.96
2022-10-02T07:55:56.748Z,12.01
2022-10-02T07:58:31.856Z,12.06
2022-10-02T08:01:03.246Z,12.14
2022-10-02T08:03:36.083Z,12.32
2022-10-02T08:06:03.911Z,12.40
2022-10-02T08:08:37.554Z,12.46
2022-10-02T08:11:08.238Z,12.50
2022-10-02T08:13:41.011Z,12.46
2022-10-02T08:16:11.102Z,12.45
2022-10-02T08:18:41.978Z,12.45
2022-10-02T08:21:12.973Z,12.49
2022-10-02T08:23:43.160Z,12.62
2022-10-02T08:26:14.385Z,12.66
2022-10-02T08:28:47.070Z,12.83
2022-10-02T08:31:14.971Z,12.73
2022-10-02T08:33:42.433Z,12.67
2022-10-02T08:36:35.377Z,12.85
2022-10-02T08:39:13.577Z,12.90
2022-10-02T08:42:02.606Z,12.78
2022-10-02T08:44:52.346Z,12.80
2022-10-02T08:48:01.670Z,12.69
2022-10-02T08:51:00.041Z,12.68
2022-10-02T08:53:53.268Z,12.71
2022-10-02T08:56:31.487Z,12.76
2022-10-02T08:59:23.547Z,12.77
2022-10-02T09:02:43.553Z,12.91
2022-10-02T09:05:48.940Z,12.92
2022-10-02T09:08:46.080Z,12.88
2022-10-02T09:11:53.901Z,12.92
2022-10-02T09:14:58.772Z,12.97
2022-10-02T09:17:56.391Z,13.08
2022-10-02T09:21:11.712Z,13.07
2022-10-02T09:24:16.884Z,13.07
2022-10-02T09:27:14.598Z,13.11
2022-10-02T09:30:08.195Z,13.11
2022-10-02T09:33:05.155Z,13.03
2022-10-02T09:35:54.081Z,13.01
2022-10-02T09:39:08.751Z,12.89
2022-10-02T09:42:13.606Z,12.93
2022-10-02T09:45:02.095Z,13.13
2022-10-02T09:47:55.581Z,13.00
2022-10-02T09:50:55.851Z,13.01
2022-10-02T09:54:04.163Z,13.02
2022-10-02T09:56:58.368Z,13.00
2022-10-02T10:00:02.191Z,13.17
2022-10-02T10:03:02.102Z,13.01
2022-10-02T10:05:51.319Z,12.99
2022-10-02T10:08:50.524Z,13.17
2022-10-02T10:11:38.884Z,13.08
2022-10-02T10:14:35.424Z,13.16
2022-10-02T10:17:39.367Z,13.24
2022-10-02T10:20:42.362Z,13.31
2022-10-02T10:23:40.983Z,13.23
2022-10-02T10:26:50.160Z,13.39
2022-10-02T10:29:47.737Z,13.31
2022-10-02T10:32:59.730Z,13.21
2022-10-02T10:35:54.457Z,13.19
2022-10-02T10:38:38.238Z,13.28
2022-10-02T10:41:36.854Z,13.41
2022-10-02T10:44:32.768Z,13.47
2022-10-02T10:47:20.121Z,13.70
2022-10-02T10:50:17.849Z,13.82
2022-10-02T10:53:11.390Z,13.64
2022-10-02T10:55:53.779Z,13.83
2022-10-02T10:58:32.910Z,13.54
2022-10-02T11:01:11.210Z,13.70
2022-10-02T11:03:56.236Z,13.74
2022-10-02T11:06:54.527Z,13.97
2022-10-02T11:09:58.439Z,14.21
2022-10-02T11:12:49.838Z,14.21
2022-10-02T11:15:31.389Z,14.08
2022-10-02T11:18:13.451Z,13.98
2022-10-02T11:21:08.587Z,14.34
2022-10-02T11:23:50.916Z,14.33
2022-10-02T11:26:29.966Z,14.45
2022-10-02T11:29:18.749Z,14.39
2022-10-02T11:32:25.429Z,14.30
2022-10-02T11:35:19.765Z,14.18
2022-10-02T11:38:04.259Z,14.09
2022-10-02T11:40:44.083Z,14.09
2022-10-02T11:43:26.295Z,13.91
2022-10-02T11:46:12.727Z,13.82
2022-10-02T11:49:04.924Z,13.74
2022-10-02T11:51:52.251Z,13.73
2022-10-02T11:54:29.116Z,13.76
2022-10-02T11:57:19.961Z,13.66
2022-10-02T12:00:07.587Z,13.68
2022-10-02T12:02:43.361Z,13.48
2022-10-02T12:05:23.771Z,13.53
2022-10-02T12:08:00.228Z,13.56
2022-10-02T12:10:35.030Z,13.62
2022-10-02T12:13:22.342Z,13.49
2022-10-02T12:16:00.007Z,13.31
2022-10-02T12:18:45.862Z,13.35
2022-10-02T12:21:26.380Z,13.24
2022-10-02T12:24:00.130Z,13.21
2022-10-02T12:26:38.932Z,13.17
2022-10-02T12:29:11.813Z,13.18
2022-10-02T12:31:48.552Z,13.16
2022-10-02T12:34:32.602Z,13.28
2022-10-02T12:37:04.918Z,13.31
2022-10-02T12:39:42.345Z,13.30
2022-10-02T12:42:29.639Z,13.34
2022-10-02T12:45:22.337Z,13.38
2022-10-02T12:48:17.730Z,13.13
2022-10-02T12:51:05.433Z,13.01
2022-10-02T12:54:04.785Z,12.93
2022-10-02T12:56:59.267Z,12.73
2022-10-02T12:59:32.709Z,12.69
2022-10-02T13:02:42.954Z,12.81
2022-10-02T13:05:47.041Z,12.84
2022-10-02T13:08:41.352Z,12.80
2022-10-02T13:11:18.820Z,12.89
2022-10-02T13:14:14.799Z,12.87
2022-10-02T13:17:03.448Z,12.95
2022-10-02T13:19:38.263Z,12.98
2022-10-02T13:22:11.621Z,13.04
2022-10-02T13:24:53.346Z,13.16
2022-10-02T13:27:32.933Z,13.18
2022-10-02T13:30:10.779Z,13.05
2022-10-02T13:32:51.347Z,12.87
2022-10-02T13:35:31.206Z,13.10
2022-10-02T13:38:10.490Z,13.15
2022-10-02T13:40:48.150Z,13.31
2022-10-02T13:43:49.790Z,13.21
2022-10-02T13:46:33.935Z,13.30
2022-10-02T13:49:08.446Z,13.10
2022-10-02T13:51:45.271Z,12.78
2022-10-02T13:54:30.355Z,12.61
2022-10-02T13:57:03.905Z,12.74
2022-10-02T13:59:46.073Z,12.64
2022-10-02T14:02:30.620Z,12.55
2022-10-02T14:05:01.742Z,12.58
2022-10-02T14:07:47.147Z,12.50
2022-10-02T14:10:24.302Z,12.48
2022-10-02T14:13:06.353Z,12.61
2022-10-02T14:15:41.378Z,12.74
2022-10-02T14:18:29.145Z,12.83
2022-10-02T14:21:08.814Z,12.96
2022-10-02T14:23:55.449Z,12.85
2022-10-02T14:26:30.889Z,12.72
2022-10-02T14:29:12.341Z,12.83
2022-10-02T14:32:05.181Z,12.74
2022-10-02T14:34:58.931Z,12.85
2022-10-02T14:37:46.751Z,12.92
2022-10-02T14:40:16.097Z,12.93
2022-10-02T14:43:01.344Z,12.99
2022-10-02T14:45:58.230Z,12.94
2022-10-02T14:48:44.591Z,13.01
2022-10-02T14:51:26.360Z,12.96
2022-10-02T14:54:09.203Z,12.78
2022-10-02T14:56:53.367Z,12.91
2022-10-02T14:59:47.783Z,12.91
2022-10-02T15:02:34.260Z,12.89
2022-10-02T15:05:13.061Z,12.87
2022-10-02T15:07:40.341Z,12.90
2022-10-02T15:10:16.334Z,12.87
2022-10-02T15:12:49.920Z,12.86
2022-10-02T15:15:22.469Z,12.63
2022-10-02T15:17:59.379Z,12.57
2022-10-02T15:20:49.358Z,12.69
2022-10-02T15:23:38.114Z,12.76
2022-10-02T15:26:23.784Z,12.80
2022-10-02T15:29:05.515Z,12.87
2022-10-02T15:31:40.834Z,12.76
2022-10-02T15:34:19.285Z,12.72
2022-10-02T15:37:00.366Z,12.72
2022-10-02T15:39:53.372Z,12.67
2022-10-02T15:42:38.539Z,12.70
2022-10-02T15:45:21.272Z,12.71
2022-10-02T15:48:01.743Z,12.59
2022-10-02T15:50:44.283Z,12.62
2022-10-02T15:53:34.893Z,12.49
2022-10-02T15:56:19.944Z,12.48
2022-10-02T15:59:10.084Z,12.36
2022-10-02T16:01:49.554Z,12.38
2022-10-02T16:04:25.769Z,12.47
2022-10-02T16:07:36.959Z,12.27
2022-10-02T16:10:19.160Z,12.24
2022-10-02T16:13:01.361Z,12.22
2022-10-02T16:15:32.300Z,12.24
2022-10-02T16:18:21.358Z,12.23
2022-10-02T16:21:20.526Z,12.23
2022-10-02T16:24:11.304Z,12.19
2022-10-02T16:27:07.149Z,12.19
2022-10-02T16:29:42.948Z,12.13
2022-10-02T16:32:20.431Z,12.21
2022-10-02T16:35:10.004Z,12.21
2022-10-02T16:37:44.152Z,12.12
2022-10-02T16:40:22.863Z,11.95
2022-10-02T16:42:53.199Z,12.00
2022-10-02T16:45:49.446Z,11.97
2022-10-02T16:48:21.091Z,11.95
2022-10-02T16:51:07.470Z,11.98
2022-10-02T16:53:40.223Z,11.95
2022-10-02T16:56:11.182Z,11.95
2022-10-02T16:58:45.111Z,11.84
2022-10-02T17:01:34.621Z,11.86
2022-10-02T17:04:23.983Z,11.84
2022-10-02T17:06:57.967Z,11.83
2022-10-02T17:09:32.376Z,11.85
2022-10-02T17:12:07.821Z,11.75
2022-10-02T17:14:42.823Z,11.73
2022-10-02T17:17:18.800Z,11.73
2022-10-02T17:19:51.112Z,11.74
2022-10-02T17:22:27.392Z,11.76
2022-10-02T17:25:04.073Z,11.69
2022-10-02T17:27:44.997Z,11.71
2022-10-02T17:30:19.110Z,11.73
2022-10-02T17:32:54.803Z,11.77
2022-10-02T17:35:38.999Z,11.74
2022-10-02T17:38:46.948Z,11.69
2022-10-02T17:41:32.938Z,11.69
2022-10-02T17:44:10.946Z,11.57
2022-10-02T17:47:16.826Z,11.63
2022-10-02T17:49:54.569Z,11.59
2022-10-02T17:52:30.395Z,11.58
2022-10-02T17:55:14.037Z,11.59
2022-10-02T17:57:53.643Z,11.60
2022-10-02T18:00:23.003Z,11.59
2022-10-02T18:03:09.011Z,11.63
2022-10-02T18:05:49.617Z,11.65
2022-10-02T18:08:32.123Z,11.62
2022-10-02T18:11:05.713Z,11.59
2022-10-02T18:13:44.208Z,11.58
2022-10-02T18:16:30.599Z,11.57
2022-10-02T18:19:25.902Z,11.62
2022-10-02T18:22:06.407Z,11.60
2022-10-02T18:24:52.150Z,11.59
2022-10-02T18:27:35.805Z,11.58
2022-10-02T18:30:11.977Z,11.58
2022-10-02T18:33:03.282Z,11.61
2022-10-02T18:35:45.182Z,11.57
2022-10-02T18:38:20.750Z,11.58
2022-10-02T18:40:54.348Z,11.61
2022-10-02T18:43:51.994Z,11.56
2022-10-02T18:46:39.278Z,11.59
2022-10-02T18:49:29.063Z,11.60
2022-10-02T18:52:30.349Z,11.50
2022-10-02T18:55:08.539Z,11.54
2022-10-02T18:57:46.697Z,11.51
2022-10-02T19:00:17.900Z,11.52
2022-10-02T19:03:03.547Z,11.53
2022-10-02T19:05:34.102Z,11.47
2022-10-02T19:08:23.882Z,11.36
2022-10-02T19:10:50.480Z,11.32
2022-10-02T19:13:26.533Z,11.34
2022-10-02T19:15:54.922Z,11.35
2022-10-02T19:18:23.290Z,11.32
2022-10-02T19:20:57.871Z,11.29
2022-10-02T19:23:32.503Z,11.29
2022-10-02T19:26:04.658Z,11.30
2022-10-02T19:28:33.775Z,11.23
2022-10-02T19:31:03.455Z,11.23
2022-10-02T19:33:41.380Z,11.17
2022-10-02T19:36:15.912Z,11.19
2022-10-02T19:38:44.839Z,11.14
2022-10-02T19:41:15.077Z,11.06
2022-10-02T19:43:49.724Z,11.08
2022-10-02T19:46:17.143Z,11.04
2022-10-02T19:48:43.980Z,11.02
2022-10-02T19:51:19.548Z,11.06
2022-10-02T19:53:50.500Z,11.01
2022-10-02T19:56:22.622Z,11.05
2022-10-02T19:58:51.026Z,11.03
2022-10-02T20:01:20.006Z,11.00
2022-10-02T20:03:48.484Z,10.94
2022-10-02T20:06:22.110Z,10.80
2022-10-02T20:08:53.663Z,10.84
2022-10-02T20:11:26.673Z,10.70
2022-10-02T20:13:56.636Z,10.73
2022-10-02T20:16:24.753Z,10.83
2022-10-02T20:18:52.231Z,10.77
2022-10-02T20:21:36.402Z,10.76
2022-10-02T20:24:05.853Z,10.70
2022-10-02T20:26:37.718Z,10.75
2022-10-02T20:29:07.189Z,10.66
2022-10-02T20:31:40.466Z,10.63
2022-10-02T20:34:12.632Z,10.64
2022-10-02T20:36:51.099Z,10.54
2022-10-02T20:39:22.987Z,10.52
2022-10-02T20:41:53.877Z,10.61
2022-10-02T20:44:20.428Z,10.53
2022-10-02T20:47:17.894Z,10.57
2022-10-02T20:50:13.406Z,10.44
2022-10-02T20:53:18.269Z,10.46
2022-10-02T20:55:50.831Z,10.43
2022-10-02T20:58:40.857Z,10.51
2022-10-02T21:01:16.961Z,10.46
2022-10-02T21:04:13.344Z,10.26
2022-10-02T21:06:54.386Z,10.22
2022-10-02T21:09:53.543Z,10.00
2022-10-02T21:12:56.869Z,10.08
2022-10-02T21:15:50.831Z,10.08
2022-10-02T21:18:49.782Z,10.12
2022-10-02T21:21:42.242Z,10.14
2022-10-02T21:24:31.424Z,10.20
2022-10-02T21:27:20.773Z,10.20
2022-10-02T21:30:07.495Z,10.20
2022-10-02T21:32:42.563Z,10.16
2022-10-02T21:35:14.075Z,10.08
2022-10-02T21:37:55.550Z,10.11
2022-10-02T21:40:49.722Z,10.10
2022-10-02T21:43:54.948Z,10.20
2022-10-02T21:46:51.344Z,10.26
2022-10-02T21:49:45.267Z,10.24
2022-10-02T21:52:40.615Z,10.24
2022-10-02T21:55:41.743Z,10.07
2022-10-02T21:58:41.921Z,10.08
2022-10-02T22:01:42.672Z,10.02
2022-10-02T22:04:47.738Z,9.92
2022-10-02T22:07:20.936Z,10.00
2022-10-02T22:09:54.518Z,9.91
2022-10-02T22:12:31.665Z,9.97
2022-10-02T22:15:09.791Z,9.91
2022-10-02T22:17:49.856Z,9.69
2022-10-02T22:20:32.873Z,9.66
2022-10-02T22:23:13.231Z,9.72
2022-10-02T22:25:56.321Z,9.77
2022-10-02T22:28:29.529Z,9.73
2022-10-02T22:31:31.465Z,9.67
2022-10-02T22:34:09.438Z,9.61
2022-10-02T22:37:11.611Z,9.61
2022-10-02T22:39:45.531Z,9.51
2022-10-02T22:42:18.906Z,9.58
2022-10-02T22:44:50.982Z,9.58
2022-10-02T22:47:27.505Z,9.37
2022-10-02T22:49:58.969Z,9.48
2022-10-02T22:52:30.328Z,9.52
2022-10-02T22:55:05.443Z,9.47
2022-10-02T22:57:40.052Z,9.44
2022-10-02T23:00:15.516Z,9.35
2022-10-02T23:02:49.938Z,9.32
2022-10-02T23:05:25.664Z,9.24
2022-10-02T23:08:00.154Z,9.30
2022-10-02T23:10:32.412Z,9.22
2022-10-02T23:13:05.970Z,9.19
2022-10-02T23:15:50.205Z,9.19
2022-10-02T23:18:28.746Z,9.12
2022-10-02T23:21:02.426Z,9.05
2022-10-02T23:23:33.493Z,9.10
2022-10-02T23:26:04.608Z,9.07
2022-10-02T23:28:37.629Z,9.03
2022-10-02T23:31:12.349Z,9.07
2022-10-02T23:33:51.333Z,8.96
2022-10-02T23:36:23.603Z,8.80
2022-10-02T23:38:57.108Z,8.72
2022-10-02T23:41:25.323Z,8.59
2022-10-02T23:44:02.960Z,8.55
2022-10-02T23:46:35.542Z,8.57
2022-10-02T23:49:03.775Z,8.52
2022-10-02T23:51:43.600Z,8.60
2022-10-02T23:54:30.840Z,8.59
2022-10-02T23:57:39.335Z,8.50
